sensor_id;sensor_type;location;lat;lon;timestamp;temperature;humidity
9971;DHT22;5026;51.494;11.974;2023-04-24T00:01:24;13.80;99.90
9971;DHT22;5026;51.494;11.974;2023-04-24T00:03:51;13.70;99.90
9971;DHT22;5026;51.494;11.974;2023-04-24T00:06:18;13.60;99.90
9971;DHT22;5026;51.494;11.974;2023-04-24T00:08:46;13.50;99.90
9971;DHT22;5026;51.494;11.974;2023-04-24T00:11:13;13.30;99.90
9971;DHT22;5026;51.494;11.974;2023-04-24T00:13:40;13.30;99.90
9971;DHT22;5026;51.494;11.974;2023-04-24T00:16:07;13.30;99.90
9971;DHT22;5026;51.494;11.974;2023-04-24T00:18:34;13.20;99.90
9971;DHT22;5026;51.494;11.974;2023-04-24T00:21:01;13.20;99.90
9971;DHT22;5026;51.494;11.974;2023-04-24T00:23:28;13.00;99.90
9971;DHT22;5026;51.494;11.974;2023-04-24T00:25:56;13.40;99.90
9971;DHT22;5026;51.494;11.974;2023-04-24T00:28:23;13.00;99.90
9971;DHT22;5026;51.494;11.974;2023-04-24T00:30:50;12.90;99.90
9971;DHT22;5026;51.494;11.974;2023-04-24T00:33:18;12.90;99.90
9971;DHT22;5026;51.494;11.974;2023-04-24T00:35:45;12.80;99.90
9971;DHT22;5026;51.494;11.974;2023-04-24T00:38:12;12.80;99.90
9971;DHT22;5026;51.494;11.974;2023-04-24T00:40:39;12.70;99.90
9971;DHT22;5026;51.494;11.974;2023-04-24T00:43:08;13.10;99.90
9971;DHT22;5026;51.494;11.974;2023-04-24T00:45:35;12.70;99.90
9971;DHT22;5026;51.494;11.974;2023-04-24T00:48:02;12.70;99.90
9971;DHT22;5026;51.494;11.974;2023-04-24T00:50:30;12.60;99.90
9971;DHT22;5026;51.494;11.974;2023-04-24T00:52:57;12.60;99.90
9971;DHT22;5026;51.494;11.974;2023-04-24T00:55:25;12.50;99.90
9971;DHT22;5026;51.494;11.974;2023-04-24T00:57:52;12.50;99.90
9971;DHT22;5026;51.494;11.974;2023-04-24T01:00:22;12.40;99.90
9971;DHT22;5026;51.494;11.974;2023-04-24T01:02:49;12.50;99.90
9971;DHT22;5026;51.494;11.974;2023-04-24T01:05:17;12.40;99.90
9971;DHT22;5026;51.494;11.974;2023-04-24T01:07:45;12.40;99.90
9971;DHT22;5026;51.494;11.974;2023-04-24T01:10:15;12.40;99.90
9971;DHT22;5026;51.494;11.974;2023-04-24T01:12:43;12.30;99.90
9971;DHT22;5026;51.494;11.974;2023-04-24T01:15:10;12.30;99.90
9971;DHT22;5026;51.494;11.974;2023-04-24T01:17:39;12.30;99.90
9971;DHT22;5026;51.494;11.974;2023-04-24T01:20:07;12.30;99.90
9971;DHT22;5026;51.494;11.974;2023-04-24T01:22:36;12.30;99.90
9971;DHT22;5026;51.494;11.974;2023-04-24T01:25:03;12.30;99.90
9971;DHT22;5026;51.494;11.974;2023-04-24T01:27:31;12.30;99.90
9971;DHT22;5026;51.494;11.974;2023-04-24T01:29:58;12.30;99.90
9971;DHT22;5026;51.494;11.974;2023-04-24T01:32:26;12.20;99.90
9971;DHT22;5026;51.494;11.974;2023-04-24T01:34:54;12.20;99.90
9971;DHT22;5026;51.494;11.974;2023-04-24T01:37:21;12.30;99.90
9971;DHT22;5026;51.494;11.974;2023-04-24T01:39:50;12.10;99.90
9971;DHT22;5026;51.494;11.974;2023-04-24T01:42:17;12.10;99.90
9971;DHT22;5026;51.494;11.974;2023-04-24T01:44:44;12.10;99.90
9971;DHT22;5026;51.494;11.974;2023-04-24T01:47:11;12.10;99.90
9971;DHT22;5026;51.494;11.974;2023-04-24T01:49:39;12.10;99.90
9971;DHT22;5026;51.494;11.974;2023-04-24T01:52:06;12.10;99.90
9971;DHT22;5026;51.494;11.974;2023-04-24T01:54:33;12.00;99.90
9971;DHT22;5026;51.494;11.974;2023-04-24T01:57:02;12.10;99.90
9971;DHT22;5026;51.494;11.974;2023-04-24T01:59:30;11.90;99.90
9971;DHT22;5026;51.494;11.974;2023-04-24T02:01:58;11.90;99.90
9971;DHT22;5026;51.494;11.974;2023-04-24T02:04:25;11.90;99.90
9971;DHT22;5026;51.494;11.974;2023-04-24T02:06:52;11.90;99.90
9971;DHT22;5026;51.494;11.974;2023-04-24T02:09:19;11.80;99.90
9971;DHT22;5026;51.494;11.974;2023-04-24T02:11:46;11.80;99.90
9971;DHT22;5026;51.494;11.974;2023-04-24T02:14:14;11.80;99.90
9971;DHT22;5026;51.494;11.974;2023-04-24T02:16:41;11.80;99.90
9971;DHT22;5026;51.494;11.974;2023-04-24T02:19:09;11.80;99.90
9971;DHT22;5026;51.494;11.974;2023-04-24T02:24:03;11.80;99.90
9971;DHT22;5026;51.494;11.974;2023-04-24T02:26:31;11.80;99.90
9971;DHT22;5026;51.494;11.974;2023-04-24T02:28:58;11.70;99.90
9971;DHT22;5026;51.494;11.974;2023-04-24T02:31:26;11.70;99.90
9971;DHT22;5026;51.494;11.974;2023-04-24T02:33:53;11.70;99.90
9971;DHT22;5026;51.494;11.974;2023-04-24T02:38:48;11.70;99.90
9971;DHT22;5026;51.494;11.974;2023-04-24T02:41:14;11.60;99.90
9971;DHT22;5026;51.494;11.974;2023-04-24T02:43:41;11.60;99.90
9971;DHT22;5026;51.494;11.974;2023-04-24T02:46:08;11.60;99.90
9971;DHT22;5026;51.494;11.974;2023-04-24T02:48:37;11.60;99.90
9971;DHT22;5026;51.494;11.974;2023-04-24T02:51:04;11.60;99.90
9971;DHT22;5026;51.494;11.974;2023-04-24T02:53:32;11.60;99.90
9971;DHT22;5026;51.494;11.974;2023-04-24T02:55:59;11.60;99.90
9971;DHT22;5026;51.494;11.974;2023-04-24T02:58:25;12.40;99.90
9971;DHT22;5026;51.494;11.974;2023-04-24T03:00:53;11.50;99.90
9971;DHT22;5026;51.494;11.974;2023-04-24T03:03:21;11.40;99.90
9971;DHT22;5026;51.494;11.974;2023-04-24T03:05:49;11.50;99.90
9971;DHT22;5026;51.494;11.974;2023-04-24T03:08:16;11.50;99.90
9971;DHT22;5026;51.494;11.974;2023-04-24T03:10:43;11.50;99.90
9971;DHT22;5026;51.494;11.974;2023-04-24T03:13:10;11.50;99.90
9971;DHT22;5026;51.494;11.974;2023-04-24T03:15:37;11.40;99.90
9971;DHT22;5026;51.494;11.974;2023-04-24T03:18:04;11.50;99.90
9971;DHT22;5026;51.494;11.974;2023-04-24T03:20:31;11.40;99.90
9971;DHT22;5026;51.494;11.974;2023-04-24T03:22:59;11.50;99.90
9971;DHT22;5026;51.494;11.974;2023-04-24T03:25:26;11.50;99.90
9971;DHT22;5026;51.494;11.974;2023-04-24T03:27:53;11.60;99.90
9971;DHT22;5026;51.494;11.974;2023-04-24T03:30:20;11.50;99.90
9971;DHT22;5026;51.494;11.974;2023-04-24T03:35:15;11.50;99.90
9971;DHT22;5026;51.494;11.974;2023-04-24T03:37:42;11.40;99.90
9971;DHT22;5026;51.494;11.974;2023-04-24T03:40:11;11.30;99.90
9971;DHT22;5026;51.494;11.974;2023-04-24T03:42:38;11.30;99.90
9971;DHT22;5026;51.494;11.974;2023-04-24T03:45:06;11.30;99.90
9971;DHT22;5026;51.494;11.974;2023-04-24T03:47:33;11.20;99.90
9971;DHT22;5026;51.494;11.974;2023-04-24T03:50:00;11.10;99.90
9971;DHT22;5026;51.494;11.974;2023-04-24T03:52:27;11.10;99.90
9971;DHT22;5026;51.494;11.974;2023-04-24T03:54:54;11.10;99.90
9971;DHT22;5026;51.494;11.974;2023-04-24T03:57:23;11.10;99.90
9971;DHT22;5026;51.494;11.974;2023-04-24T03:59:50;11.00;99.90
9971;DHT22;5026;51.494;11.974;2023-04-24T04:02:19;11.00;99.90
9971;DHT22;5026;51.494;11.974;2023-04-24T04:04:45;11.00;99.90
9971;DHT22;5026;51.494;11.974;2023-04-24T04:07:13;11.00;99.90
9971;DHT22;5026;51.494;11.974;2023-04-24T04:12:07;11.10;99.90
9971;DHT22;5026;51.494;11.974;2023-04-24T04:14:35;11.10;99.90
9971;DHT22;5026;51.494;11.974;2023-04-24T04:17:02;11.10;99.90
9971;DHT22;5026;51.494;11.974;2023-04-24T04:19:29;11.20;99.90
9971;DHT22;5026;51.494;11.974;2023-04-24T04:21:56;11.20;99.90
9971;DHT22;5026;51.494;11.974;2023-04-24T04:24:23;11.20;99.90
9971;DHT22;5026;51.494;11.974;2023-04-24T04:26:52;11.20;99.90
9971;DHT22;5026;51.494;11.974;2023-04-24T04:29:22;11.20;99.90
9971;DHT22;5026;51.494;11.974;2023-04-24T04:31:50;11.20;99.90
9971;DHT22;5026;51.494;11.974;2023-04-24T04:34:17;11.20;99.90
9971;DHT22;5026;51.494;11.974;2023-04-24T04:36:45;11.20;99.90
9971;DHT22;5026;51.494;11.974;2023-04-24T04:39:11;11.20;99.90
9971;DHT22;5026;51.494;11.974;2023-04-24T04:41:39;11.20;99.90
9971;DHT22;5026;51.494;11.974;2023-04-24T04:44:07;11.30;99.90
9971;DHT22;5026;51.494;11.974;2023-04-24T04:46:35;11.30;99.90
9971;DHT22;5026;51.494;11.974;2023-04-24T04:49:05;11.20;99.90
9971;DHT22;5026;51.494;11.974;2023-04-24T04:51:34;11.20;99.90
9971;DHT22;5026;51.494;11.974;2023-04-24T04:54:01;11.30;99.90
9971;DHT22;5026;51.494;11.974;2023-04-24T04:56:28;11.40;99.90
9971;DHT22;5026;51.494;11.974;2023-04-24T04:58:55;11.50;99.90
9971;DHT22;5026;51.494;11.974;2023-04-24T05:01:22;11.60;99.90
9971;DHT22;5026;51.494;11.974;2023-04-24T05:03:51;11.80;99.90
9971;DHT22;5026;51.494;11.974;2023-04-24T05:06:19;12.00;99.90
9971;DHT22;5026;51.494;11.974;2023-04-24T05:08:46;12.20;99.90
9971;DHT22;5026;51.494;11.974;2023-04-24T05:11:14;12.30;99.90
9971;DHT22;5026;51.494;11.974;2023-04-24T05:13:41;12.50;99.90
9971;DHT22;5026;51.494;11.974;2023-04-24T05:16:08;12.60;99.90
9971;DHT22;5026;51.494;11.974;2023-04-24T05:18:35;12.70;99.90
9971;DHT22;5026;51.494;11.974;2023-04-24T05:21:03;12.80;99.90
9971;DHT22;5026;51.494;11.974;2023-04-24T05:23:33;13.00;99.90
9971;DHT22;5026;51.494;11.974;2023-04-24T05:26:01;13.30;99.90
9971;DHT22;5026;51.494;11.974;2023-04-24T05:28:28;13.30;99.90
9971;DHT22;5026;51.494;11.974;2023-04-24T05:30:56;13.80;99.90
9971;DHT22;5026;51.494;11.974;2023-04-24T05:33:24;13.80;99.90
9971;DHT22;5026;51.494;11.974;2023-04-24T05:35:51;14.10;99.90
9971;DHT22;5026;51.494;11.974;2023-04-24T05:38:18;14.20;99.90
9971;DHT22;5026;51.494;11.974;2023-04-24T05:40:47;14.60;99.90
9971;DHT22;5026;51.494;11.974;2023-04-24T05:43:14;14.80;99.90
9971;DHT22;5026;51.494;11.974;2023-04-24T05:45:44;15.00;99.90
9971;DHT22;5026;51.494;11.974;2023-04-24T05:48:11;15.10;99.90
9971;DHT22;5026;51.494;11.974;2023-04-24T05:50:38;15.30;99.90
9971;DHT22;5026;51.494;11.974;2023-04-24T05:53:05;16.10;99.90
9971;DHT22;5026;51.494;11.974;2023-04-24T05:55:33;19.90;99.30
9971;DHT22;5026;51.494;11.974;2023-04-24T05:58:03;20.70;95.60
9971;DHT22;5026;51.494;11.974;2023-04-24T06:00:30;23.80;94.40
9971;DHT22;5026;51.494;11.974;2023-04-24T06:02:58;24.20;90.20
9971;DHT22;5026;51.494;11.974;2023-04-24T06:05:25;22.20;89.10
9971;DHT22;5026;51.494;11.974;2023-04-24T06:07:52;20.80;90.70
9971;DHT22;5026;51.494;11.974;2023-04-24T06:10:19;21.00;92.00
9971;DHT22;5026;51.494;11.974;2023-04-24T06:12:46;21.20;92.00
9971;DHT22;5026;51.494;11.974;2023-04-24T06:15:14;23.20;90.50
9971;DHT22;5026;51.494;11.974;2023-04-24T06:17:42;23.90;87.90
9971;DHT22;5026;51.494;11.974;2023-04-24T06:20:09;25.40;86.10
9971;DHT22;5026;51.494;11.974;2023-04-24T06:22:37;26.90;81.50
9971;DHT22;5026;51.494;11.974;2023-04-24T06:25:06;26.60;78.00
9971;DHT22;5026;51.494;11.974;2023-04-24T06:27:33;24.50;78.00
9971;DHT22;5026;51.494;11.974;2023-04-24T06:30:01;22.40;79.80
9971;DHT22;5026;51.494;11.974;2023-04-24T06:32:29;21.50;82.30
9971;DHT22;5026;51.494;11.974;2023-04-24T06:34:57;21.30;83.80
9971;DHT22;5026;51.494;11.974;2023-04-24T06:37:24;20.10;85.00
9971;DHT22;5026;51.494;11.974;2023-04-24T06:39:51;19.60;87.10
9971;DHT22;5026;51.494;11.974;2023-04-24T06:42:18;20.00;87.70
9971;DHT22;5026;51.494;11.974;2023-04-24T06:44:46;21.00;86.50
9971;DHT22;5026;51.494;11.974;2023-04-24T06:47:13;20.60;86.10
9971;DHT22;5026;51.494;11.974;2023-04-24T06:49:42;20.70;86.50
9971;DHT22;5026;51.494;11.974;2023-04-24T06:52:09;23.60;84.60
9971;DHT22;5026;51.494;11.974;2023-04-24T06:54:36;23.10;81.90
9971;DHT22;5026;51.494;11.974;2023-04-24T06:57:03;22.20;82.50
9971;DHT22;5026;51.494;11.974;2023-04-24T06:59:30;22.00;83.20
9971;DHT22;5026;51.494;11.974;2023-04-24T07:01:57;21.90;83.30
9971;DHT22;5026;51.494;11.974;2023-04-24T07:04:25;22.20;83.20
9971;DHT22;5026;51.494;11.974;2023-04-24T07:06:53;22.30;82.60
9971;DHT22;5026;51.494;11.974;2023-04-24T07:09:21;22.50;81.80
9971;DHT22;5026;51.494;11.974;2023-04-24T07:11:49;22.40;82.00
9971;DHT22;5026;51.494;11.974;2023-04-24T07:14:17;21.60;82.50
9971;DHT22;5026;51.494;11.974;2023-04-24T07:16:44;21.00;83.30
9971;DHT22;5026;51.494;11.974;2023-04-24T07:19:12;20.50;84.30
9971;DHT22;5026;51.494;11.974;2023-04-24T07:21:39;20.50;85.00
9971;DHT22;5026;51.494;11.974;2023-04-24T07:24:08;20.70;84.70
9971;DHT22;5026;51.494;11.974;2023-04-24T07:26:37;21.10;84.10
9971;DHT22;5026;51.494;11.974;2023-04-24T07:29:05;21.40;83.60
9971;DHT22;5026;51.494;11.974;2023-04-24T07:31:32;22.00;84.30
9971;DHT22;5026;51.494;11.974;2023-04-24T07:33:59;23.70;82.60
9971;DHT22;5026;51.494;11.974;2023-04-24T07:36:26;25.40;80.00
9971;DHT22;5026;51.494;11.974;2023-04-24T07:38:54;26.30;78.50
9971;DHT22;5026;51.494;11.974;2023-04-24T07:41:23;26.40;75.30
9971;DHT22;5026;51.494;11.974;2023-04-24T07:43:50;25.50;75.50
9971;DHT22;5026;51.494;11.974;2023-04-24T07:46:18;24.60;75.10
9971;DHT22;5026;51.494;11.974;2023-04-24T07:48:45;23.90;75.40
9971;DHT22;5026;51.494;11.974;2023-04-24T07:51:13;23.40;75.70
9971;DHT22;5026;51.494;11.974;2023-04-24T07:53:41;22.40;76.40
9971;DHT22;5026;51.494;11.974;2023-04-24T07:56:08;21.90;77.20
9971;DHT22;5026;51.494;11.974;2023-04-24T07:58:37;21.50;78.00
9971;DHT22;5026;51.494;11.974;2023-04-24T08:01:04;21.10;77.60
9971;DHT22;5026;51.494;11.974;2023-04-24T08:03:31;21.90;78.10
9971;DHT22;5026;51.494;11.974;2023-04-24T08:05:58;23.10;77.40
9971;DHT22;5026;51.494;11.974;2023-04-24T08:08:25;23.50;76.40
9971;DHT22;5026;51.494;11.974;2023-04-24T08:10:53;22.50;75.90
9971;DHT22;5026;51.494;11.974;2023-04-24T08:13:20;21.50;77.00
9971;DHT22;5026;51.494;11.974;2023-04-24T08:15:49;21.90;78.10
9971;DHT22;5026;51.494;11.974;2023-04-24T08:18:16;22.30;77.40
9971;DHT22;5026;51.494;11.974;2023-04-24T08:20:43;22.10;76.80
9971;DHT22;5026;51.494;11.974;2023-04-24T08:23:10;22.70;77.30
9971;DHT22;5026;51.494;11.974;2023-04-24T08:25:37;23.00;76.90
9971;DHT22;5026;51.494;11.974;2023-04-24T08:28:06;24.20;76.50
9971;DHT22;5026;51.494;11.974;2023-04-24T08:30:33;24.90;76.00
9971;DHT22;5026;51.494;11.974;2023-04-24T08:33:01;25.00;74.70
9971;DHT22;5026;51.494;11.974;2023-04-24T08:35:28;25.70;73.80
9971;DHT22;5026;51.494;11.974;2023-04-24T08:37:56;27.10;71.10
9971;DHT22;5026;51.494;11.974;2023-04-24T08:40:27;27.90;69.30
9971;DHT22;5026;51.494;11.974;2023-04-24T08:42:55;26.90;66.80
9971;DHT22;5026;51.494;11.974;2023-04-24T08:45:23;24.40;69.20
9971;DHT22;5026;51.494;11.974;2023-04-24T08:47:52;23.30;69.90
9971;DHT22;5026;51.494;11.974;2023-04-24T08:50:22;21.90;69.50
9971;DHT22;5026;51.494;11.974;2023-04-24T08:52:50;20.70;70.70
9971;DHT22;5026;51.494;11.974;2023-04-24T08:55:19;20.10;71.70
9971;DHT22;5026;51.494;11.974;2023-04-24T08:57:50;19.90;72.20
9971;DHT22;5026;51.494;11.974;2023-04-24T09:00:19;19.70;72.40
9971;DHT22;5026;51.494;11.974;2023-04-24T09:02:48;20.10;72.70
9971;DHT22;5026;51.494;11.974;2023-04-24T09:05:16;21.20;72.90
9971;DHT22;5026;51.494;11.974;2023-04-24T09:07:51;23.20;70.60
9971;DHT22;5026;51.494;11.974;2023-04-24T09:10:20;25.20;68.10
9971;DHT22;5026;51.494;11.974;2023-04-24T09:12:48;25.90;65.70
9971;DHT22;5026;51.494;11.974;2023-04-24T09:15:16;26.10;64.20
9971;DHT22;5026;51.494;11.974;2023-04-24T09:17:44;26.00;63.60
9971;DHT22;5026;51.494;11.974;2023-04-24T09:20:11;26.10;63.10
9971;DHT22;5026;51.494;11.974;2023-04-24T09:22:38;25.00;62.70
9971;DHT22;5026;51.494;11.974;2023-04-24T09:25:08;24.80;62.60
9971;DHT22;5026;51.494;11.974;2023-04-24T09:27:42;25.40;61.60
9971;DHT22;5026;51.494;11.974;2023-04-24T09:30:11;25.50;61.30
9971;DHT22;5026;51.494;11.974;2023-04-24T09:32:38;25.50;61.00
9971;DHT22;5026;51.494;11.974;2023-04-24T09:35:07;25.50;61.10
9971;DHT22;5026;51.494;11.974;2023-04-24T09:37:36;25.50;59.90
9971;DHT22;5026;51.494;11.974;2023-04-24T09:40:14;24.90;58.90
9971;DHT22;5026;51.494;11.974;2023-04-24T09:42:43;24.30;59.40
9971;DHT22;5026;51.494;11.974;2023-04-24T09:45:12;23.80;57.90
9971;DHT22;5026;51.494;11.974;2023-04-24T09:47:39;23.50;57.30
9971;DHT22;5026;51.494;11.974;2023-04-24T09:50:13;23.40;56.40
9971;DHT22;5026;51.494;11.974;2023-04-24T09:52:43;23.10;56.50
9971;DHT22;5026;51.494;11.974;2023-04-24T09:55:18;23.00;56.20
9971;DHT22;5026;51.494;11.974;2023-04-24T09:57:49;22.50;56.50
9971;DHT22;5026;51.494;11.974;2023-04-24T10:00:24;22.40;56.60
9971;DHT22;5026;51.494;11.974;2023-04-24T10:02:56;22.40;57.40
9971;DHT22;5026;51.494;11.974;2023-04-24T10:05:26;22.40;58.00
9971;DHT22;5026;51.494;11.974;2023-04-24T10:07:57;22.10;57.00
9971;DHT22;5026;51.494;11.974;2023-04-24T10:10:26;21.70;57.50
9971;DHT22;5026;51.494;11.974;2023-04-24T10:12:53;21.30;58.30
9971;DHT22;5026;51.494;11.974;2023-04-24T10:15:21;21.00;59.70
9971;DHT22;5026;51.494;11.974;2023-04-24T10:17:49;20.70;59.40
9971;DHT22;5026;51.494;11.974;2023-04-24T10:20:20;20.90;59.60
9971;DHT22;5026;51.494;11.974;2023-04-24T10:22:49;20.60;59.00
9971;DHT22;5026;51.494;11.974;2023-04-24T10:25:19;20.70;59.90
9971;DHT22;5026;51.494;11.974;2023-04-24T10:27:49;20.70;59.30
9971;DHT22;5026;51.494;11.974;2023-04-24T10:30:17;20.70;59.80
9971;DHT22;5026;51.494;11.974;2023-04-24T10:32:44;20.60;59.80
9971;DHT22;5026;51.494;11.974;2023-04-24T10:35:13;20.40;59.90
9971;DHT22;5026;51.494;11.974;2023-04-24T10:37:43;20.30;60.60
9971;DHT22;5026;51.494;11.974;2023-04-24T10:40:12;20.00;60.00
9971;DHT22;5026;51.494;11.974;2023-04-24T10:45:18;19.70;60.10
9971;DHT22;5026;51.494;11.974;2023-04-24T10:47:56;19.60;60.80
9971;DHT22;5026;51.494;11.974;2023-04-24T10:50:25;19.40;60.80
9971;DHT22;5026;51.494;11.974;2023-04-24T10:52:52;19.40;60.30
9971;DHT22;5026;51.494;11.974;2023-04-24T10:55:40;19.30;60.30
9971;DHT22;5026;51.494;11.974;2023-04-24T10:58:08;19.50;60.00
9971;DHT22;5026;51.494;11.974;2023-04-24T11:00:38;19.50;60.00
9971;DHT22;5026;51.494;11.974;2023-04-24T11:03:06;19.60;60.00
9971;DHT22;5026;51.494;11.974;2023-04-24T11:05:55;19.60;60.40
9971;DHT22;5026;51.494;11.974;2023-04-24T11:08:27;19.70;60.70
9971;DHT22;5026;51.494;11.974;2023-04-24T11:11:03;19.90;60.50
9971;DHT22;5026;51.494;11.974;2023-04-24T11:14:02;20.00;60.60
9971;DHT22;5026;51.494;11.974;2023-04-24T11:16:32;19.70;59.10
9971;DHT22;5026;51.494;11.974;2023-04-24T11:19:05;19.70;59.50
9971;DHT22;5026;51.494;11.974;2023-04-24T11:21:38;19.50;58.60
9971;DHT22;5026;51.494;11.974;2023-04-24T11:24:29;19.50;59.00
9971;DHT22;5026;51.494;11.974;2023-04-24T11:26:57;19.60;59.20
9971;DHT22;5026;51.494;11.974;2023-04-24T11:29:42;19.70;57.70
9971;DHT22;5026;51.494;11.974;2023-04-24T11:32:17;19.60;58.30
9971;DHT22;5026;51.494;11.974;2023-04-24T11:34:46;19.30;59.00
9971;DHT22;5026;51.494;11.974;2023-04-24T11:37:14;19.40;59.10
9971;DHT22;5026;51.494;11.974;2023-04-24T11:39:40;19.60;58.80
9971;DHT22;5026;51.494;11.974;2023-04-24T11:42:09;19.40;58.80
9971;DHT22;5026;51.494;11.974;2023-04-24T11:44:36;19.20;59.20
9971;DHT22;5026;51.494;11.974;2023-04-24T11:47:04;19.20;59.30
9971;DHT22;5026;51.494;11.974;2023-04-24T11:49:32;19.10;59.70
9971;DHT22;5026;51.494;11.974;2023-04-24T11:52:00;19.20;60.30
9971;DHT22;5026;51.494;11.974;2023-04-24T11:54:27;19.20;60.00
9971;DHT22;5026;51.494;11.974;2023-04-24T11:56:55;19.50;60.20
9971;DHT22;5026;51.494;11.974;2023-04-24T11:59:22;19.60;58.50
9971;DHT22;5026;51.494;11.974;2023-04-24T12:01:49;19.60;59.00
9971;DHT22;5026;51.494;11.974;2023-04-24T12:04:17;19.50;58.80
9971;DHT22;5026;51.494;11.974;2023-04-24T12:07:01;19.30;58.80
9971;DHT22;5026;51.494;11.974;2023-04-24T12:09:29;19.50;59.00
9971;DHT22;5026;51.494;11.974;2023-04-24T12:11:56;19.70;59.20
9971;DHT22;5026;51.494;11.974;2023-04-24T12:14:23;19.80;58.80
9971;DHT22;5026;51.494;11.974;2023-04-24T12:16:50;19.90;59.00
9971;DHT22;5026;51.494;11.974;2023-04-24T12:19:20;20.10;58.80
9971;DHT22;5026;51.494;11.974;2023-04-24T12:22:01;20.20;58.80
9971;DHT22;5026;51.494;11.974;2023-04-24T12:24:29;20.30;58.50
9971;DHT22;5026;51.494;11.974;2023-04-24T12:26:56;20.60;58.30
9971;DHT22;5026;51.494;11.974;2023-04-24T12:29:23;20.90;57.70
9971;DHT22;5026;51.494;11.974;2023-04-24T12:31:51;20.90;58.10
9971;DHT22;5026;51.494;11.974;2023-04-24T12:34:18;20.70;58.30
9971;DHT22;5026;51.494;11.974;2023-04-24T12:36:46;20.70;57.20
9971;DHT22;5026;51.494;11.974;2023-04-24T12:39:18;20.50;57.20
9971;DHT22;5026;51.494;11.974;2023-04-24T12:41:55;20.60;57.70
9971;DHT22;5026;51.494;11.974;2023-04-24T12:44:29;20.70;57.60
9971;DHT22;5026;51.494;11.974;2023-04-24T12:46:57;20.60;58.10
9971;DHT22;5026;51.494;11.974;2023-04-24T12:49:24;20.60;58.10
9971;DHT22;5026;51.494;11.974;2023-04-24T12:51:51;20.60;58.60
9971;DHT22;5026;51.494;11.974;2023-04-24T12:54:19;20.20;59.20
9971;DHT22;5026;51.494;11.974;2023-04-24T12:56:46;19.90;58.70
9971;DHT22;5026;51.494;11.974;2023-04-24T12:59:13;19.90;59.50
9971;DHT22;5026;51.494;11.974;2023-04-24T13:01:41;21.60;60.70
9971;DHT22;5026;51.494;11.974;2023-04-24T13:04:08;20.30;58.60
9971;DHT22;5026;51.494;11.974;2023-04-24T13:06:35;20.20;57.50
9971;DHT22;5026;51.494;11.974;2023-04-24T13:09:02;20.10;58.10
9971;DHT22;5026;51.494;11.974;2023-04-24T13:11:31;20.10;58.20
9971;DHT22;5026;51.494;11.974;2023-04-24T13:13:58;19.90;58.10
9971;DHT22;5026;51.494;11.974;2023-04-24T13:16:25;19.70;58.40
9971;DHT22;5026;51.494;11.974;2023-04-24T13:18:52;19.50;58.80
9971;DHT22;5026;51.494;11.974;2023-04-24T13:21:19;19.50;59.20
9971;DHT22;5026;51.494;11.974;2023-04-24T13:23:46;19.60;59.70
9971;DHT22;5026;51.494;11.974;2023-04-24T13:26:13;20.70;60.70
9971;DHT22;5026;51.494;11.974;2023-04-24T13:28:41;19.40;60.00
9971;DHT22;5026;51.494;11.974;2023-04-24T13:31:08;19.40;60.30
9971;DHT22;5026;51.494;11.974;2023-04-24T13:33:35;19.20;60.00
9971;DHT22;5026;51.494;11.974;2023-04-24T13:36:03;19.00;60.50
9971;DHT22;5026;51.494;11.974;2023-04-24T13:38:30;19.00;60.80
9971;DHT22;5026;51.494;11.974;2023-04-24T13:40:57;19.00;61.30
9971;DHT22;5026;51.494;11.974;2023-04-24T13:43:24;18.80;61.40
9971;DHT22;5026;51.494;11.974;2023-04-24T13:45:53;18.80;61.60
9971;DHT22;5026;51.494;11.974;2023-04-24T13:48:20;18.70;61.70
9971;DHT22;5026;51.494;11.974;2023-04-24T13:50:47;18.50;61.60
9971;DHT22;5026;51.494;11.974;2023-04-24T13:53:15;18.40;62.60
9971;DHT22;5026;51.494;11.974;2023-04-24T13:55:42;18.50;62.50
9971;DHT22;5026;51.494;11.974;2023-04-24T13:58:10;18.60;62.50
9971;DHT22;5026;51.494;11.974;2023-04-24T14:00:37;18.80;62.40
9971;DHT22;5026;51.494;11.974;2023-04-24T14:03:05;18.70;62.30
9971;DHT22;5026;51.494;11.974;2023-04-24T14:05:32;18.50;62.40
9971;DHT22;5026;51.494;11.974;2023-04-24T14:07:59;18.20;63.00
9971;DHT22;5026;51.494;11.974;2023-04-24T14:10:26;18.10;63.40
9971;DHT22;5026;51.494;11.974;2023-04-24T14:12:53;17.90;63.60
9971;DHT22;5026;51.494;11.974;2023-04-24T14:15:20;18.00;63.90
9971;DHT22;5026;51.494;11.974;2023-04-24T14:17:48;17.90;64.60
9971;DHT22;5026;51.494;11.974;2023-04-24T14:20:16;17.80;64.90
9971;DHT22;5026;51.494;11.974;2023-04-24T14:22:43;17.80;65.10
9971;DHT22;5026;51.494;11.974;2023-04-24T14:25:11;17.70;65.30
9971;DHT22;5026;51.494;11.974;2023-04-24T14:27:38;17.60;65.60
9971;DHT22;5026;51.494;11.974;2023-04-24T14:30:06;17.70;66.00
9971;DHT22;5026;51.494;11.974;2023-04-24T14:32:34;17.60;66.30
9971;DHT22;5026;51.494;11.974;2023-04-24T14:35:01;17.30;66.50
9971;DHT22;5026;51.494;11.974;2023-04-24T14:37:29;16.70;67.80
9971;DHT22;5026;51.494;11.974;2023-04-24T14:39:56;16.50;68.00
9971;DHT22;5026;51.494;11.974;2023-04-24T14:42:23;16.20;67.80
9971;DHT22;5026;51.494;11.974;2023-04-24T14:44:51;16.10;68.00
9971;DHT22;5026;51.494;11.974;2023-04-24T14:47:18;16.20;67.90
9971;DHT22;5026;51.494;11.974;2023-04-24T14:49:47;16.30;68.70
9971;DHT22;5026;51.494;11.974;2023-04-24T14:52:14;16.50;68.70
9971;DHT22;5026;51.494;11.974;2023-04-24T14:54:42;16.10;67.80
9971;DHT22;5026;51.494;11.974;2023-04-24T14:57:09;15.90;67.60
9971;DHT22;5026;51.494;11.974;2023-04-24T14:59:36;15.80;67.70
9971;DHT22;5026;51.494;11.974;2023-04-24T15:02:03;16.00;67.90
9971;DHT22;5026;51.494;11.974;2023-04-24T15:06:58;16.10;67.80
9971;DHT22;5026;51.494;11.974;2023-04-24T15:11:54;16.60;66.30
9971;DHT22;5026;51.494;11.974;2023-04-24T15:14:22;16.60;66.00
9971;DHT22;5026;51.494;11.974;2023-04-24T15:16:48;16.50;65.70
9971;DHT22;5026;51.494;11.974;2023-04-24T15:19:15;16.30;65.60
9971;DHT22;5026;51.494;11.974;2023-04-24T15:21:42;16.10;65.70
9971;DHT22;5026;51.494;11.974;2023-04-24T15:24:10;16.00;66.10
9971;DHT22;5026;51.494;11.974;2023-04-24T15:26:37;16.00;66.30
9971;DHT22;5026;51.494;11.974;2023-04-24T15:29:05;15.90;66.50
9971;DHT22;5026;51.494;11.974;2023-04-24T15:31:32;15.80;66.80
9971;DHT22;5026;51.494;11.974;2023-04-24T15:33:59;15.60;66.80
9971;DHT22;5026;51.494;11.974;2023-04-24T15:36:26;15.80;67.20
9971;DHT22;5026;51.494;11.974;2023-04-24T15:38:53;15.90;67.10
9971;DHT22;5026;51.494;11.974;2023-04-24T15:41:19;15.90;66.70
9971;DHT22;5026;51.494;11.974;2023-04-24T15:43:46;15.60;67.00
9971;DHT22;5026;51.494;11.974;2023-04-24T15:46:15;15.60;67.20
9971;DHT22;5026;51.494;11.974;2023-04-24T15:53:37;15.50;67.50
9971;DHT22;5026;51.494;11.974;2023-04-24T15:56:04;15.50;67.80
9971;DHT22;5026;51.494;11.974;2023-04-24T15:58:31;15.50;68.10
9971;DHT22;5026;51.494;11.974;2023-04-24T16:00:59;15.30;68.50
9971;DHT22;5026;51.494;11.974;2023-04-24T16:03:27;15.10;68.70
9971;DHT22;5026;51.494;11.974;2023-04-24T16:05:54;14.90;68.50
9971;DHT22;5026;51.494;11.974;2023-04-24T16:08:21;15.00;68.70
9971;DHT22;5026;51.494;11.974;2023-04-24T16:10:48;14.90;68.90
9971;DHT22;5026;51.494;11.974;2023-04-24T16:13:17;14.60;69.60